Share

San Luis Potosí, México

3:29 PM CDT en Abril 23, 2014 (GMT -0500)
Ponciano Arriaga International (MMSP) Alt 6033 ft | 22.26 °N, 100.93 °W | Change Station

Current weather conditions updated 46 minutes ago

Mostly Cloudy
Muy nublado
84 ° F
Sensación térmica 84 ° F
N
9
Viento Variable Viento desde OSO
Amanecer 7:17 AM
Atardecer 8:06 PM
Luna Creciente menguante

Hoy se prevé una temperatura muy similar a la de ayer.

Presión 30.10 pul
Visibilidad 15.0 Millas
Nubes Muy nublado 2000 ft
Punto de rocío 27 ° F
Humedad 12%
Precipitaciones 0.00 pul
Espesor de la nieve No disponible.
UV 7 de una escala de 16
Polen No disponible.
Calidad del aire No disponible.
Flu Activity No disponible.
METAR MMSP 231943Z 25008KT 15SM BKN020TCU 29/M03 A3010 RMK 8/200 CB DSNT N E

More Conditions Fewer Conditions

Presión 30.10 pul
Visibilidad 15.0 Millas
Nubes Muy nublado 2000 ft
Punto de rocío 27 ° F
Humedad 12%
Precipitaciones 0.00 pul
Espesor de la nieve No disponible.
UV 7 de una escala de 16
Polen No disponible.
Calidad del aire No disponible.
Flu Activity No disponible.
METAR MMSP 231943Z 25008KT 15SM BKN020TCU 29/M03 A3010 RMK 8/200 CB DSNT N E

More Conditions Fewer Conditions

10-Day Weather Forecast

Almanac

Astronomía

Apr. 23, 2014 Salida Puesta
Hora real 7:17 AM CDT 8:06 PM CDT
Crepúsculo civil 6:54 AM CDT 8:30 PM CDT
Crepúsculo náutico 6:27 AM CDT 8:57 PM CDT
Crepúsculo astronómico 5:59 AM CDT 9:25 PM CDT
Luna 3:07 AM CDT 2:57 PM CDT
Horas de luz 13h 35m
Horas de luz
12h 49m
Tomorrow will be 1m 9s longer.
Creciente menguante, 33% of the Moon is Illuminated
Hoy
Creciente menguante
Abr 29
Nueva
May 6
Cuarto creciente
May 14
Luna llena
May 21
Cuarto menguante

Extremos de hoy

Máximos del país Bajas del país

Community

  • Stunning Sunrise
    Stunning Sunrise
  • spring flowers
    spring flowers
  • Earth Day Spectrum Ove' Blue
    Earth Day Spectrum Ove' Blue
  • BARN B&W
    BARN B&W
  • April Sunset
    April Sunset

WunderPhotos

Upload Photos

1,704,402 ¡fotos cargadas!

WunderBlogs® & News

Nearby

Calidad del aire

Not available.

Grosos de nieve

Not available.

Temperaturas de aguas costeras

Lugar Temperatura
Sin partes meteorológicos de las estaciones

Actividad de terremotos

Ciudad Distance Mag. Tiempo y dato
No hay informes recientes de la actividad sísmica.
Magnitud mínima muestra es 2,5.

Estaciones meteorológicas cercanas

No hay estaciones meteorológicas personales en esta zona.

What do you think?

We're not finished. Please let us know what you like, what you don't like, and what you are still missing.